Betagas — V2KA8 — position and weather

sailwx.info

Track history (hours):
 
Tides and Currents Weather Stations Pressure Air Temp Water Temp Dewpoint Dewpoint Depression Visibility Wind Speed Wind Dir Waves Ship Positions

Betagas

Last reported at 2015-Apr-28 04:33 UTC. Time now 2015-Apr-28 05:18 UTC.
Position N 53°44' E 000°44'.

Length 114.6 m; beam 15.7 m; draft 7.4 m.

Type: Ship. MMSI: 304050636.

Date/timePositionNaut miles runAvg speedWind from/ knotsBaromVisibWave heightAir tempDewpointWater temp
2015-Apr-28 04:33N 53°44' E 000°44'1514.7
2015-Apr-28 03:33N 53°56' E 000°28'1514.9
2015-Apr-28 02:33N 54°07' E 000°11'1515.2
2015-Apr-28 01:33N 54°18' W 000°06'1615.6
2015-Apr-28 00:33N 54°29' W 000°24'1716.7
2015-Apr-27 23:31N 54°38' W 000°50'12 1.1
2015-Apr-27 13:12N 54°36' W 001°10'0 0.0
2015-Apr-27 12:28N 54°36' W 001°10'0 0.0
2015-Apr-27 11:18N 54°36' W 001°10'0 0.0
2015-Apr-27 09:33N 54°36' W 001°10'0 0.0
2015-Apr-27 07:33N 54°36' W 001°10'0 0.0
2015-Apr-27 06:06N 54°36' W 001°10'0 0.3
2015-Apr-27 05:33N 54°36' W 001°10'8 7.5
2015-Apr-27 04:32N 54°39' W 000°57'1714.1
2015-Apr-27 03:20N 54°33' W 000°30'1113.7
2015-Apr-27 02:34N 54°25' W 000°18'1413.7
2015-Apr-27 01:33N 54°15' W 000°03'1313.0
2015-Apr-27 00:33N 54°05' E 000°11'1312.9
2015-Apr-26 23:33N 53°52' E 000°16'1313.0
2015-Apr-26 22:34N 53°40' E 000°22'1110.5
2015-Apr-26 21:33N 53°33' E 000°09'1211.9
2015-Apr-26 20:33N 53°38' W 000°10'2 2.0
2015-Apr-26 19:33N 53°39' W 000°13'0 0.0
2015-Apr-26 18:33N 53°39' W 000°13'0 0.0
2015-Apr-26 17:33N 53°39' W 000°13'0 0.0
2015-Apr-26 16:33N 53°39' W 000°13'0 0.0
2015-Apr-26 15:33N 53°39' W 000°13'0 0.0
2015-Apr-26 14:33N 53°39' W 000°13'0 0.0
2015-Apr-26 13:33N 53°39' W 000°13'0 0.0
2015-Apr-26 12:33N 53°39' W 000°13'0 0.0
2015-Apr-26 11:33N 53°39' W 000°13'0 0.0
2015-Apr-26 10:33N 53°39' W 000°13'0 0.0
2015-Apr-26 09:33N 53°39' W 000°13'0 0.0
2015-Apr-26 08:33N 53°39' W 000°13'0 0.0
2015-Apr-26 07:33N 53°39' W 000°13'0 0.0
2015-Apr-26 06:33N 53°39' W 000°13'0 0.0
2015-Apr-26 05:33N 53°39' W 000°13'0 0.0
2015-Apr-26 04:33N 53°39' W 000°13'0 0.0
2015-Apr-26 03:33N 53°39' W 000°13'0 0.0
2015-Apr-26 02:33N 53°39' W 000°13'0 0.0
2015-Apr-26 01:33N 53°39' W 000°13'0 0.0
2015-Apr-26 00:33N 53°39' W 000°13'0 0.0
2015-Apr-25 23:33N 53°39' W 000°13'0 0.0
2015-Apr-25 22:33N 53°39' W 000°13'0 0.0
2015-Apr-25 21:33N 53°39' W 000°13'0 0.3
2015-Apr-25 20:33N 53°39' W 000°13'0 0.4
2015-Apr-25 19:33N 53°40' W 000°13'4 3.7
2015-Apr-25 18:33N 53°38' W 000°08'1111.5
2015-Apr-25 17:33N 53°33' E 000°10'9 7.5
2015-Apr-25 16:25N 53°36' E 000°24'0 0.0
2015-Apr-25 15:25N 53°36' E 000°24'0 0.1
2015-Apr-25 14:28N 53°36' E 000°24'0 0.0
2015-Apr-25 13:31N 53°36' E 000°24'0 0.0
2015-Apr-25 12:28N 53°36' E 000°24'0 0.0
2015-Apr-25 11:31N 53°36' E 000°24'0 0.1
2015-Apr-25 10:31N 53°36' E 000°24'0 0.1
2015-Apr-25 09:28N 53°36' E 000°24'0 0.0
2015-Apr-25 08:31N 53°36' E 000°24'0 0.0
2015-Apr-25 07:31N 53°36' E 000°24'0 0.1
2015-Apr-25 06:31N 53°36' E 000°24'0 0.1
2015-Apr-25 05:31N 53°36' E 000°24'0 0.0
2015-Apr-25 04:28N 53°36' E 000°24'0 0.0
2015-Apr-25 03:31N 53°36' E 000°24'0 0.0
2015-Apr-25 02:31N 53°36' E 000°24'0 0.0
2015-Apr-25 01:31N 53°36' E 000°24'0 0.0
2015-Apr-25 00:31N 53°36' E 000°24'0 0.0
2015-Apr-24 23:28N 53°36' E 000°24'0 0.1
2015-Apr-24 22:28N 53°36' E 000°24'0 0.0
2015-Apr-24 21:31N 53°36' E 000°24'0 0.0
2015-Apr-24 20:31N 53°36' E 000°24'0 0.0
2015-Apr-24 19:22N 53°36' E 000°24'0 0.1
2015-Apr-24 18:16N 53°36' E 000°24'0 0.1
2015-Apr-24 17:31N 53°36' E 000°24'0 0.1
2015-Apr-24 16:31N 53°36' E 000°24'0 0.0
2015-Apr-24 15:28N 53°36' E 000°24'0 0.0
2015-Apr-24 14:31N 53°36' E 000°24'0 0.0
2015-Apr-24 13:28N 53°36' E 000°24'0 0.0
2015-Apr-24 12:28N 53°36' E 000°24'0 0.0
2015-Apr-24 11:28N 53°36' E 000°24'0 0.1
2015-Apr-24 10:22N 53°36' E 000°24'0 0.1
2015-Apr-24 09:31N 53°36' E 000°24'0 0.0
2015-Apr-24 08:31N 53°36' E 000°24'0 0.0
2015-Apr-24 07:31N 53°36' E 000°24'0 0.0
2015-Apr-24 06:31N 53°36' E 000°24'0 0.0
2015-Apr-24 05:31N 53°36' E 000°24'5 4.9
2015-Apr-24 04:34N 53°33' E 000°30'1615.0
2015-Apr-24 03:30N 53°27' E 000°55'2915.0
2015-Apr-24 01:33N 53°04' E 001°26'1413.5
2015-Apr-24 00:33N 52°54' E 001°39'1312.5
2015-Apr-23 23:33N 52°47' E 001°57'1212.1
2015-Apr-23 22:33N 52°36' E 002°05'1413.7
2015-Apr-23 21:31N 52°23' E 002°13'1515.1
2015-Apr-23 20:33N 52°09' E 002°21'1814.8
2015-Apr-23 19:22N 51°54' E 002°36'1214.5
2015-Apr-23 18:32N 51°49' E 002°54'1414.1
2015-Apr-23 17:33N 51°46' E 003°16'2 0.7
2015-Apr-23 14:19N 51°46' E 003°20'3 3.7
2015-Apr-23 13:33N 51°48' E 003°18'1412.4
2015-Apr-23 12:28N 52°02' E 003°22'1112.0
2015-Apr-23 11:33N 52°03' E 003°39'1111.0
2015-Apr-23 10:33N 52°01' E 003°57'11 9.2
2015-Apr-23 09:22N 51°55' E 004°12'0 0.0
2015-Apr-23 08:19N 51°55' E 004°12'0 0.0
2015-Apr-23 07:10N 51°55' E 004°12'0 0.0
2015-Apr-23 06:04N 51°55' E 004°12'0 0.0
2015-Apr-23 05:25N 51°55' E 004°12'0 0.0
2015-Apr-23 04:31N 51°55' E 004°12'0 0.0
2015-Apr-23 03:16N 51°55' E 004°12'0 0.0
2015-Apr-23 02:22N 51°55' E 004°12'0 0.0
2015-Apr-23 01:31N 51°55' E 004°12'0 0.0
2015-Apr-23 00:28N 51°55' E 004°12'0 0.0
2015-Apr-22 23:19N 51°55' E 004°12'0 0.0
2015-Apr-22 22:31N 51°55' E 004°12'0 0.0
2015-Apr-22 21:31N 51°55' E 004°12'0 0.0
2015-Apr-22 20:31N 51°55' E 004°12'0 0.0
2015-Apr-22 19:19N 51°55' E 004°12'0 0.0
2015-Apr-22 18:31N 51°55' E 004°12'0 0.0
2015-Apr-22 16:13N 51°55' E 004°12'0 0.0
2015-Apr-22 15:31N 51°55' E 004°12'0 0.0
2015-Apr-22 14:25N 51°55' E 004°12'0 0.0
2015-Apr-22 13:25N 51°55' E 004°12'0 0.0
2015-Apr-22 12:31N 51°55' E 004°12'0 0.0
2015-Apr-22 11:28N 51°55' E 004°12'0 0.0
2015-Apr-22 10:25N 51°55' E 004°12'0 0.0
2015-Apr-22 09:25N 51°55' E 004°12'0 0.0
2015-Apr-22 08:19N 51°55' E 004°12'0 0.0
2015-Apr-22 07:31N 51°55' E 004°12'4 4.0
2015-Apr-22 06:33N 51°58' E 004°07'1312.5
2015-Apr-22 05:31N 51°60' E 003°47'1515.1
2015-Apr-22 04:32N 51°56' E 003°24'1915.5
2015-Apr-22 03:21N 51°50' E 002°55'1514.8
2015-Apr-22 02:20N 51°43' E 002°34'1515.1
2015-Apr-22 01:22N 51°32' E 002°18'1114.0
2015-Apr-22 00:33N 51°22' E 002°10'1312.7
2015-Apr-21 23:31N 51°11' E 001°58'1111.6
2015-Apr-21 22:33N 51°06' E 001°42'1110.7
2015-Apr-21 21:34N 50°58' E 001°31'1010.2
2015-Apr-21 20:33N 50°48' E 001°24'4411.0
2015-Apr-21 16:32N 50°24' E 000°27'1511.5
2015-Apr-21 15:16N 50°20' E 000°04'911.9
2015-Apr-21 14:32N 50°18' W 000°09'1512.4
2015-Apr-21 13:19N 50°15' W 000°32'1013.6
2015-Apr-21 12:33N 50°11' W 000°47'1515.2
2015-Apr-21 11:33N 50°07' W 001°10'7317.0
2015-Apr-21 07:15N 49°47' W 002°59'1415.4
2015-Apr-21 06:19N 49°40' W 003°19'1815.0
2015-Apr-21 05:07N 49°30' W 003°42'66613.3
2015-Apr-19 03:04N 39°21' W 009°57'714.5
2015-Apr-19 02:33N 39°14' W 009°57'1414.4
2015-Apr-19 01:33N 38°59' W 009°57'1414.4
2015-Apr-19 00:33N 38°45' W 009°57'1413.8
2015-Apr-18 23:33N 38°31' W 009°54'1413.7
2015-Apr-18 22:33N 38°18' W 009°50'1413.7
2015-Apr-18 21:32N 38°04' W 009°46'1413.6
2015-Apr-18 20:29N 37°50' W 009°41'1613.2
2015-Apr-18 19:18N 37°35' W 009°37'  
Track history (hours):
 
Tides and Currents Weather Stations Pressure Air Temp Water Temp Dewpoint Dewpoint Depression Visibility Wind Speed Wind Dir Waves Ship Positions

Betagas

Last reported at 2015-Apr-28 04:33 UTC. Time now 2015-Apr-28 05:18 UTC.
Position N 53°44' E 000°44'.

Length 114.6 m; beam 15.7 m; draft 7.4 m.

Type: Ship. MMSI: 304050636.

Date/timePositionNaut miles runAvg speedWind from/ knotsBaromVisibWave heightAir tempDewpointWater temp
2015-Apr-28 04:33N 53°44' E 000°44'1514.7
2015-Apr-28 03:33N 53°56' E 000°28'1514.9
2015-Apr-28 02:33N 54°07' E 000°11'1515.2
2015-Apr-28 01:33N 54°18' W 000°06'1615.6
2015-Apr-28 00:33N 54°29' W 000°24'1716.7
2015-Apr-27 23:31N 54°38' W 000°50'12 1.1
2015-Apr-27 13:12N 54°36' W 001°10'0 0.0
2015-Apr-27 12:28N 54°36' W 001°10'0 0.0
2015-Apr-27 11:18N 54°36' W 001°10'0 0.0
2015-Apr-27 09:33N 54°36' W 001°10'0 0.0
2015-Apr-27 07:33N 54°36' W 001°10'0 0.0
2015-Apr-27 06:06N 54°36' W 001°10'0 0.3
2015-Apr-27 05:33N 54°36' W 001°10'8 7.5
2015-Apr-27 04:32N 54°39' W 000°57'1714.1
2015-Apr-27 03:20N 54°33' W 000°30'1113.7
2015-Apr-27 02:34N 54°25' W 000°18'1413.7
2015-Apr-27 01:33N 54°15' W 000°03'1313.0
2015-Apr-27 00:33N 54°05' E 000°11'1312.9
2015-Apr-26 23:33N 53°52' E 000°16'1313.0
2015-Apr-26 22:34N 53°40' E 000°22'1110.5
2015-Apr-26 21:33N 53°33' E 000°09'1211.9
2015-Apr-26 20:33N 53°38' W 000°10'2 2.0
2015-Apr-26 19:33N 53°39' W 000°13'0 0.0
2015-Apr-26 18:33N 53°39' W 000°13'0 0.0
2015-Apr-26 17:33N 53°39' W 000°13'0 0.0
2015-Apr-26 16:33N 53°39' W 000°13'0 0.0
2015-Apr-26 15:33N 53°39' W 000°13'0 0.0
2015-Apr-26 14:33N 53°39' W 000°13'0 0.0
2015-Apr-26 13:33N 53°39' W 000°13'0 0.0
2015-Apr-26 12:33N 53°39' W 000°13'0 0.0
2015-Apr-26 11:33N 53°39' W 000°13'0 0.0
2015-Apr-26 10:33N 53°39' W 000°13'0 0.0
2015-Apr-26 09:33N 53°39' W 000°13'0 0.0
2015-Apr-26 08:33N 53°39' W 000°13'0 0.0
2015-Apr-26 07:33N 53°39' W 000°13'0 0.0
2015-Apr-26 06:33N 53°39' W 000°13'0 0.0
2015-Apr-26 05:33N 53°39' W 000°13'0 0.0
2015-Apr-26 04:33N 53°39' W 000°13'0 0.0
2015-Apr-26 03:33N 53°39' W 000°13'0 0.0
2015-Apr-26 02:33N 53°39' W 000°13'0 0.0
2015-Apr-26 01:33N 53°39' W 000°13'0 0.0
2015-Apr-26 00:33N 53°39' W 000°13'0 0.0
2015-Apr-25 23:33N 53°39' W 000°13'0 0.0
2015-Apr-25 22:33N 53°39' W 000°13'0 0.0
2015-Apr-25 21:33N 53°39' W 000°13'0 0.3
2015-Apr-25 20:33N 53°39' W 000°13'0 0.4
2015-Apr-25 19:33N 53°40' W 000°13'4 3.7
2015-Apr-25 18:33N 53°38' W 000°08'1111.5
2015-Apr-25 17:33N 53°33' E 000°10'9 7.5
2015-Apr-25 16:25N 53°36' E 000°24'0 0.0
2015-Apr-25 15:25N 53°36' E 000°24'0 0.1
2015-Apr-25 14:28N 53°36' E 000°24'0 0.0
2015-Apr-25 13:31N 53°36' E 000°24'0 0.0
2015-Apr-25 12:28N 53°36' E 000°24'0 0.0
2015-Apr-25 11:31N 53°36' E 000°24'0 0.1
2015-Apr-25 10:31N 53°36' E 000°24'0 0.1
2015-Apr-25 09:28N 53°36' E 000°24'0 0.0
2015-Apr-25 08:31N 53°36' E 000°24'0 0.0
2015-Apr-25 07:31N 53°36' E 000°24'0 0.1
2015-Apr-25 06:31N 53°36' E 000°24'0 0.1
2015-Apr-25 05:31N 53°36' E 000°24'0 0.0
2015-Apr-25 04:28N 53°36' E 000°24'0 0.0
2015-Apr-25 03:31N 53°36' E 000°24'0 0.0
2015-Apr-25 02:31N 53°36' E 000°24'0 0.0
2015-Apr-25 01:31N 53°36' E 000°24'0 0.0
2015-Apr-25 00:31N 53°36' E 000°24'0 0.0
2015-Apr-24 23:28N 53°36' E 000°24'0 0.1
2015-Apr-24 22:28N 53°36' E 000°24'0 0.0
2015-Apr-24 21:31N 53°36' E 000°24'0 0.0
2015-Apr-24 20:31N 53°36' E 000°24'0 0.0
2015-Apr-24 19:22N 53°36' E 000°24'0 0.1
2015-Apr-24 18:16N 53°36' E 000°24'0 0.1
2015-Apr-24 17:31N 53°36' E 000°24'0 0.1
2015-Apr-24 16:31N 53°36' E 000°24'0 0.0
2015-Apr-24 15:28N 53°36' E 000°24'0 0.0
2015-Apr-24 14:31N 53°36' E 000°24'0 0.0
2015-Apr-24 13:28N 53°36' E 000°24'0 0.0
2015-Apr-24 12:28N 53°36' E 000°24'0 0.0
2015-Apr-24 11:28N 53°36' E 000°24'0 0.1
2015-Apr-24 10:22N 53°36' E 000°24'0 0.1
2015-Apr-24 09:31N 53°36' E 000°24'0 0.0
2015-Apr-24 08:31N 53°36' E 000°24'0 0.0
2015-Apr-24 07:31N 53°36' E 000°24'0 0.0
2015-Apr-24 06:31N 53°36' E 000°24'0 0.0
2015-Apr-24 05:31N 53°36' E 000°24'5 4.9
2015-Apr-24 04:34N 53°33' E 000°30'1615.0
2015-Apr-24 03:30N 53°27' E 000°55'2915.0
2015-Apr-24 01:33N 53°04' E 001°26'1413.5
2015-Apr-24 00:33N 52°54' E 001°39'1312.5
2015-Apr-23 23:33N 52°47' E 001°57'1212.1
2015-Apr-23 22:33N 52°36' E 002°05'1413.7
2015-Apr-23 21:31N 52°23' E 002°13'1515.1
2015-Apr-23 20:33N 52°09' E 002°21'1814.8
2015-Apr-23 19:22N 51°54' E 002°36'1214.5
2015-Apr-23 18:32N 51°49' E 002°54'1414.1
2015-Apr-23 17:33N 51°46' E 003°16'2 0.7
2015-Apr-23 14:19N 51°46' E 003°20'3 3.7
2015-Apr-23 13:33N 51°48' E 003°18'1412.4
2015-Apr-23 12:28N 52°02' E 003°22'1112.0
2015-Apr-23 11:33N 52°03' E 003°39'1111.0
2015-Apr-23 10:33N 52°01' E 003°57'11 9.2
2015-Apr-23 09:22N 51°55' E 004°12'0 0.0
2015-Apr-23 08:19N 51°55' E 004°12'0 0.0
2015-Apr-23 07:10N 51°55' E 004°12'0 0.0
2015-Apr-23 06:04N 51°55' E 004°12'0 0.0
2015-Apr-23 05:25N 51°55' E 004°12'0 0.0
2015-Apr-23 04:31N 51°55' E 004°12'0 0.0
2015-Apr-23 03:16N 51°55' E 004°12'0 0.0
2015-Apr-23 02:22N 51°55' E 004°12'0 0.0
2015-Apr-23 01:31N 51°55' E 004°12'0 0.0
2015-Apr-23 00:28N 51°55' E 004°12'0 0.0
2015-Apr-22 23:19N 51°55' E 004°12'0 0.0
2015-Apr-22 22:31N 51°55' E 004°12'0 0.0
2015-Apr-22 21:31N 51°55' E 004°12'0 0.0
2015-Apr-22 20:31N 51°55' E 004°12'0 0.0
2015-Apr-22 19:19N 51°55' E 004°12'0 0.0
2015-Apr-22 18:31N 51°55' E 004°12'0 0.0
2015-Apr-22 16:13N 51°55' E 004°12'0 0.0
2015-Apr-22 15:31N 51°55' E 004°12'0 0.0
2015-Apr-22 14:25N 51°55' E 004°12'0 0.0
2015-Apr-22 13:25N 51°55' E 004°12'0 0.0
2015-Apr-22 12:31N 51°55' E 004°12'0 0.0
2015-Apr-22 11:28N 51°55' E 004°12'0 0.0
2015-Apr-22 10:25N 51°55' E 004°12'0 0.0
2015-Apr-22 09:25N 51°55' E 004°12'0 0.0
2015-Apr-22 08:19N 51°55' E 004°12'0 0.0
2015-Apr-22 07:31N 51°55' E 004°12'4 4.0
2015-Apr-22 06:33N 51°58' E 004°07'1312.5
2015-Apr-22 05:31N 51°60' E 003°47'1515.1
2015-Apr-22 04:32N 51°56' E 003°24'1915.5
2015-Apr-22 03:21N 51°50' E 002°55'1514.8
2015-Apr-22 02:20N 51°43' E 002°34'1515.1
2015-Apr-22 01:22N 51°32' E 002°18'1114.0
2015-Apr-22 00:33N 51°22' E 002°10'1312.7
2015-Apr-21 23:31N 51°11' E 001°58'1111.6
2015-Apr-21 22:33N 51°06' E 001°42'1110.7
2015-Apr-21 21:34N 50°58' E 001°31'1010.2
2015-Apr-21 20:33N 50°48' E 001°24'4411.0
2015-Apr-21 16:32N 50°24' E 000°27'1511.5
2015-Apr-21 15:16N 50°20' E 000°04'911.9
2015-Apr-21 14:32N 50°18' W 000°09'1512.4
2015-Apr-21 13:19N 50°15' W 000°32'1013.6
2015-Apr-21 12:33N 50°11' W 000°47'1515.2
2015-Apr-21 11:33N 50°07' W 001°10'7317.0
2015-Apr-21 07:15N 49°47' W 002°59'1415.4
2015-Apr-21 06:19N 49°40' W 003°19'1815.0
2015-Apr-21 05:07N 49°30' W 003°42'66613.3
2015-Apr-19 03:04N 39°21' W 009°57'714.5
2015-Apr-19 02:33N 39°14' W 009°57'1414.4
2015-Apr-19 01:33N 38°59' W 009°57'1414.4
2015-Apr-19 00:33N 38°45' W 009°57'1413.8
2015-Apr-18 23:33N 38°31' W 009°54'1413.7
2015-Apr-18 22:33N 38°18' W 009°50'1413.7
2015-Apr-18 21:32N 38°04' W 009°46'1413.6
2015-Apr-18 20:29N 37°50' W 009°41'1613.2
2015-Apr-18 19:18N 37°35' W 009°37'  

Dump ship's entire track history